Maersk Drummond — A8JF3 — position and weather

sailwx.info

Track history (hours):
 
Tides and Currents Weather Stations Pressure Air Temp Water Temp Dewpoint Dewpoint Depression Visibility Wind Speed Wind Dir Waves Ship Positions

Maersk Drummond

Last reported at 2015-Jun-26 06:14 UTC. Time now 2015-Jun-30 19:42 UTC.
Position N 32°33' W 079°35'.

Length 294 m; draft 11.1 m.

Type: Ship (hazmat cat A). MMSI: 636091082.

Date/timePositionNaut miles runAvg speedWind from/ knotsBaromVisibWave heightAir tempDewpointWater temp
2015-Jun-26 06:14N 32°33' W 079°35'1 1.0
2015-Jun-26 05:33N 32°32' W 079°35'1111.4
2015-Jun-26 04:33N 32°21' W 079°33'1313.4
2015-Jun-26 03:33N 32°07' W 079°32'33215.7
2015-Jun-25 06:26N 26°35' W 079°25'1617.9
2015-Jun-25 05:33N 26°19' W 079°26'1817.6
2015-Jun-25 04:33N 26°02' W 079°30'1818.2
2015-Jun-25 03:33N 25°44' W 079°33'  
2015-Jun-22 08:33N 29°55' W 090°06'7 6.5
2015-Jun-22 07:29N 29°56' W 089°59'3 3.3
2015-Jun-22 06:30N 29°53' W 089°57'251 7.8
2015-Jun-20 22:20N 29°21' W 094°43'912.0
2015-Jun-20 21:33N 29°27' W 094°51'1211.6
2015-Jun-20 20:33N 29°37' W 094°57'4 4.3
2015-Jun-20 19:32N 29°41' W 095°00'0 0.0
2015-Jun-20 18:32N 29°41' W 095°00'0 0.0
2015-Jun-20 17:32N 29°41' W 095°00'0 0.0
2015-Jun-20 16:32N 29°41' W 095°00'0 0.0
2015-Jun-20 15:32N 29°41' W 095°00'0 0.0
2015-Jun-20 14:32N 29°41' W 095°00'0 0.0
2015-Jun-20 13:32N 29°41' W 095°00'0 0.0
2015-Jun-20 12:32N 29°41' W 095°00'0 0.0
2015-Jun-20 11:32N 29°41' W 095°00'0 0.0
2015-Jun-20 10:32N 29°41' W 095°00'0 0.0
2015-Jun-20 09:32N 29°41' W 095°00'0 0.0
2015-Jun-20 08:29N 29°41' W 095°00'0 0.0
2015-Jun-20 07:23N 29°41' W 095°00'0 0.0
2015-Jun-20 06:29N 29°41' W 095°00'0 0.0
2015-Jun-20 05:32N 29°41' W 095°00'0 0.0
2015-Jun-20 04:32N 29°41' W 095°00'0 0.0
2015-Jun-20 03:32N 29°41' W 095°00'0 0.0
2015-Jun-20 02:32N 29°41' W 095°00'0 0.0
2015-Jun-20 01:32N 29°41' W 095°00'0 0.0
2015-Jun-20 00:32N 29°41' W 095°00'0 0.0
2015-Jun-19 23:32N 29°41' W 095°00'0 0.0
2015-Jun-19 22:32N 29°41' W 095°00'0 0.0
2015-Jun-19 21:32N 29°41' W 095°00'0 0.0
2015-Jun-19 20:32N 29°41' W 095°00'0 0.0
2015-Jun-19 19:32N 29°41' W 095°00'0 0.0
2015-Jun-19 18:14N 29°41' W 095°00'0 0.0
2015-Jun-19 17:20N 29°41' W 095°00'0 0.0
2015-Jun-19 16:32N 29°41' W 095°00'0 0.0
2015-Jun-19 14:23N 29°41' W 095°00'0 0.0
2015-Jun-19 13:32N 29°41' W 095°00'0 0.0
2015-Jun-19 12:32N 29°41' W 095°00'0 0.1
2015-Jun-19 11:32N 29°41' W 095°00'3 2.9
2015-Jun-19 10:33N 29°39' W 094°58'1211.6
2015-Jun-19 09:33N 29°29' W 094°51'  
Track history (hours):
 
Tides and Currents Weather Stations Pressure Air Temp Water Temp Dewpoint Dewpoint Depression Visibility Wind Speed Wind Dir Waves Ship Positions

Maersk Drummond

Last reported at 2015-Jun-26 06:14 UTC. Time now 2015-Jun-30 19:42 UTC.
Position N 32°33' W 079°35'.

Length 294 m; draft 11.1 m.

Type: Ship (hazmat cat A). MMSI: 636091082.

Date/timePositionNaut miles runAvg speedWind from/ knotsBaromVisibWave heightAir tempDewpointWater temp
2015-Jun-26 06:14N 32°33' W 079°35'1 1.0
2015-Jun-26 05:33N 32°32' W 079°35'1111.4
2015-Jun-26 04:33N 32°21' W 079°33'1313.4
2015-Jun-26 03:33N 32°07' W 079°32'33215.7
2015-Jun-25 06:26N 26°35' W 079°25'1617.9
2015-Jun-25 05:33N 26°19' W 079°26'1817.6
2015-Jun-25 04:33N 26°02' W 079°30'1818.2
2015-Jun-25 03:33N 25°44' W 079°33'  
2015-Jun-22 08:33N 29°55' W 090°06'7 6.5
2015-Jun-22 07:29N 29°56' W 089°59'3 3.3
2015-Jun-22 06:30N 29°53' W 089°57'251 7.8
2015-Jun-20 22:20N 29°21' W 094°43'912.0
2015-Jun-20 21:33N 29°27' W 094°51'1211.6
2015-Jun-20 20:33N 29°37' W 094°57'4 4.3
2015-Jun-20 19:32N 29°41' W 095°00'0 0.0
2015-Jun-20 18:32N 29°41' W 095°00'0 0.0
2015-Jun-20 17:32N 29°41' W 095°00'0 0.0
2015-Jun-20 16:32N 29°41' W 095°00'0 0.0
2015-Jun-20 15:32N 29°41' W 095°00'0 0.0
2015-Jun-20 14:32N 29°41' W 095°00'0 0.0
2015-Jun-20 13:32N 29°41' W 095°00'0 0.0
2015-Jun-20 12:32N 29°41' W 095°00'0 0.0
2015-Jun-20 11:32N 29°41' W 095°00'0 0.0
2015-Jun-20 10:32N 29°41' W 095°00'0 0.0
2015-Jun-20 09:32N 29°41' W 095°00'0 0.0
2015-Jun-20 08:29N 29°41' W 095°00'0 0.0
2015-Jun-20 07:23N 29°41' W 095°00'0 0.0
2015-Jun-20 06:29N 29°41' W 095°00'0 0.0
2015-Jun-20 05:32N 29°41' W 095°00'0 0.0
2015-Jun-20 04:32N 29°41' W 095°00'0 0.0
2015-Jun-20 03:32N 29°41' W 095°00'0 0.0
2015-Jun-20 02:32N 29°41' W 095°00'0 0.0
2015-Jun-20 01:32N 29°41' W 095°00'0 0.0
2015-Jun-20 00:32N 29°41' W 095°00'0 0.0
2015-Jun-19 23:32N 29°41' W 095°00'0 0.0
2015-Jun-19 22:32N 29°41' W 095°00'0 0.0
2015-Jun-19 21:32N 29°41' W 095°00'0 0.0
2015-Jun-19 20:32N 29°41' W 095°00'0 0.0
2015-Jun-19 19:32N 29°41' W 095°00'0 0.0
2015-Jun-19 18:14N 29°41' W 095°00'0 0.0
2015-Jun-19 17:20N 29°41' W 095°00'0 0.0
2015-Jun-19 16:32N 29°41' W 095°00'0 0.0
2015-Jun-19 14:23N 29°41' W 095°00'0 0.0
2015-Jun-19 13:32N 29°41' W 095°00'0 0.0
2015-Jun-19 12:32N 29°41' W 095°00'0 0.1
2015-Jun-19 11:32N 29°41' W 095°00'3 2.9
2015-Jun-19 10:33N 29°39' W 094°58'1211.6
2015-Jun-19 09:33N 29°29' W 094°51'  

Dump ship's entire track history